Barbarossa — ZDFA4 — position and weather

sailwx.info

Track history (hours):
 
Tides and Currents Weather Stations Pressure Air Temp Water Temp Dewpoint Dewpoint Depression Visibility Wind Speed Wind Dir Waves Ship Positions

Barbarossa

Last reported at 2018-Apr-27 04:59 UTC. Time now 2018-Apr-27 05:04 UTC.
Position N 54°56' E 019°01'.

Length 83 m; draft 5.4 m.

Type: Cargo ship. MMSI: 236029000.

Date/timePositionNaut miles runAvg speedWind from/ knotsBaromVisibWave heightAir tempDewpointWater temp
2018-Apr-27 04:59N 54°56' E 019°01'510.1
2018-Apr-27 04:30N 55°01' E 019°02'5 9.8
2018-Apr-27 04:00N 55°06' E 019°02'5 9.9
2018-Apr-27 03:30N 55°11' E 019°04'276 9.9
2018-Apr-25 23:32N 59°46' E 019°42'110.6
2018-Apr-25 23:26N 59°46' E 019°40'510.4
2018-Apr-25 23:00N 59°50' E 019°34'510.3
2018-Apr-25 22:30N 59°53' E 019°27'510.6
2018-Apr-25 22:01N 59°57' E 019°19'510.7
2018-Apr-25 21:30N 60°01' E 019°12'510.8
2018-Apr-25 21:01N 60°04' E 019°04'510.9
2018-Apr-25 20:30N 60°08' E 018°56'510.2
2018-Apr-25 20:00N 60°12' E 018°48'4 8.5
2018-Apr-25 19:31N 60°14' E 018°41'4 8.5
2018-Apr-25 19:01N 60°10' E 018°38'4 7.8
2018-Apr-25 18:28N 60°10' E 018°29'0 0.0
2018-Apr-25 17:51N 60°10' E 018°29'0 0.0
2018-Apr-25 17:30N 60°10' E 018°29'0 0.0
2018-Apr-25 17:00N 60°10' E 018°29'0 0.0
2018-Apr-25 16:30N 60°10' E 018°29'0 0.0
2018-Apr-25 15:56N 60°10' E 018°29'0 0.0
2018-Apr-25 15:23N 60°10' E 018°29'0 0.0
2018-Apr-25 14:59N 60°10' E 018°29'0 0.0
2018-Apr-25 14:29N 60°10' E 018°29'0 0.0
2018-Apr-25 13:59N 60°10' E 018°29'0 0.0
2018-Apr-25 13:25N 60°10' E 018°29'0 0.0
2018-Apr-25 12:52N 60°10' E 018°29'0 0.0
2018-Apr-25 12:28N 60°10' E 018°29'0 0.0
2018-Apr-25 11:58N 60°10' E 018°29'0 0.0
2018-Apr-25 11:28N 60°10' E 018°29'0 0.0
2018-Apr-25 10:54N 60°10' E 018°29'0 0.0
2018-Apr-25 10:30N 60°10' E 018°29'0 0.0
2018-Apr-25 10:00N 60°10' E 018°29'0 0.0
2018-Apr-25 09:30N 60°10' E 018°29'0 0.0
2018-Apr-25 08:56N 60°10' E 018°29'0 0.0
2018-Apr-25 08:23N 60°10' E 018°29'0 0.0
2018-Apr-25 07:59N 60°10' E 018°29'0 0.0
2018-Apr-25 07:29N 60°10' E 018°29'0 0.0
2018-Apr-25 06:59N 60°10' E 018°29'0 0.0
2018-Apr-25 06:22N 60°10' E 018°29'0 0.0
2018-Apr-25 05:49N 60°10' E 018°29'0 0.0
2018-Apr-25 05:16N 60°10' E 018°29'0 0.0
2018-Apr-25 04:58N 60°10' E 018°29'0 0.0
2018-Apr-25 04:28N 60°10' E 018°29'0 0.0
2018-Apr-25 03:51N 60°10' E 018°29'0 0.0
2018-Apr-25 03:30N 60°10' E 018°29'0 0.0
2018-Apr-25 03:00N 60°10' E 018°29'0 0.0
2018-Apr-25 02:24N 60°10' E 018°29'0 0.0
2018-Apr-25 01:38N 60°10' E 018°29'0 0.0
2018-Apr-25 01:20N 60°10' E 018°29'0 0.0
2018-Apr-25 00:59N 60°10' E 018°29'0 0.0
2018-Apr-25 00:29N 60°10' E 018°29'0 0.0
2018-Apr-24 23:56N 60°10' E 018°29'0 0.0
2018-Apr-24 23:22N 60°10' E 018°29'0 0.0
2018-Apr-24 22:49N 60°10' E 018°29'0 0.0
2018-Apr-24 22:28N 60°10' E 018°29'0 0.0
2018-Apr-24 21:58N 60°10' E 018°29'0 0.0
2018-Apr-24 21:06N 60°10' E 018°29'0 0.0
2018-Apr-24 20:51N 60°10' E 018°29'0 0.0
2018-Apr-24 20:30N 60°10' E 018°29'0 0.0
2018-Apr-24 20:00N 60°10' E 018°29'0 0.0
2018-Apr-24 19:30N 60°10' E 018°29'1 1.4
2018-Apr-24 19:00N 60°10' E 018°31'510.2
2018-Apr-24 18:30N 60°10' E 018°41'4 8.4
2018-Apr-24 18:00N 60°14' E 018°44'611.2
2018-Apr-24 17:30N 60°12' E 018°54'1 2.8
2018-Apr-24 16:59N 60°12' E 018°57'1 2.6
2018-Apr-24 16:30N 60°13' E 018°59'3 5.2
2018-Apr-24 16:00N 60°16' E 018°60'3 5.8
2018-Apr-24 15:30N 60°19' E 019°00'4 7.1
2018-Apr-24 15:00N 60°22' E 018°60'7 7.6
2018-Apr-24 14:06N 60°29' E 018°59'1 7.8
2018-Apr-24 13:59N 60°30' E 018°60'171 8.8
2018-Apr-23 18:30N 63°11' E 021°03'510.3
2018-Apr-23 18:00N 63°07' E 021°11'8 0.3
2018-Apr-22 18:28N 63°06' E 021°28'5 9.6
2018-Apr-22 18:00N 63°08' E 021°18'5 8.7
2018-Apr-22 17:26N 63°08' E 021°07'510.6
2018-Apr-22 16:59N 63°12' E 021°01'175 9.5
2018-Apr-21 22:26N 60°25' E 019°02'410.7
2018-Apr-21 22:00N 60°21' E 019°01'510.5
2018-Apr-21 21:30N 60°16' E 019°02'510.6
2018-Apr-21 21:00N 60°11' E 019°06'610.9
2018-Apr-21 20:30N 60°07' E 019°13'510.8
2018-Apr-21 20:00N 60°02' E 019°20'510.7
2018-Apr-21 19:30N 59°58' E 019°27'510.7
2018-Apr-21 19:00N 59°54' E 019°33'510.7
2018-Apr-21 18:30N 59°50' E 019°40'710.7
2018-Apr-21 17:53N 59°45' E 019°49'29110.3
2018-Apr-20 13:39N 54°54' E 019°34'210.8
2018-Apr-20 13:29N 54°52' E 019°35'510.8
2018-Apr-20 13:00N 54°47' E 019°36'810.1
2018-Apr-20 12:15N 54°42' E 019°45'510.1
2018-Apr-20 11:48N 54°39' E 019°52'2 7.0
2018-Apr-20 11:30N 54°38' E 019°55'11 4.5
2018-Apr-20 09:08N 54°41' E 020°12'0 0.0
2018-Apr-20 04:03N 54°41' E 020°12'0 0.0
2018-Apr-20 03:54N 54°41' E 020°12'0 0.0
2018-Apr-20 02:33N 54°41' E 020°12'0 0.0
2018-Apr-20 02:27N 54°41' E 020°12'  
2018-Apr-17 14:03N 54°39' E 020°04'110.4
2018-Apr-17 13:58N 54°39' E 020°02'8 7.9
2018-Apr-17 13:00N 54°40' E 019°49'2 2.9
2018-Apr-17 12:25N 54°38' E 019°47'0 0.0
2018-Apr-17 11:58N 54°38' E 019°47'0 0.0
2018-Apr-17 11:31N 54°38' E 019°47'0 0.0
2018-Apr-17 10:24N 54°38' E 019°47'0 0.0
2018-Apr-17 10:00N 54°38' E 019°47'0 0.0
2018-Apr-17 09:24N 54°38' E 019°47'0 0.0
2018-Apr-17 08:59N 54°38' E 019°47'0 0.0
2018-Apr-17 07:50N 54°38' E 019°47'0 0.0
2018-Apr-17 07:26N 54°38' E 019°47'0 0.0
2018-Apr-17 06:43N 54°38' E 019°47'0 0.0
2018-Apr-17 06:22N 54°38' E 019°47'0 0.0
2018-Apr-17 05:58N 54°38' E 019°47'0 0.0
2018-Apr-17 05:28N 54°38' E 019°47'  
Track history (hours):
 
Tides and Currents Weather Stations Pressure Air Temp Water Temp Dewpoint Dewpoint Depression Visibility Wind Speed Wind Dir Waves Ship Positions

Barbarossa

Last reported at 2018-Apr-27 04:59 UTC. Time now 2018-Apr-27 05:04 UTC.
Position N 54°56' E 019°01'.

Length 83 m; draft 5.4 m.

Type: Cargo ship. MMSI: 236029000.

Date/timePositionNaut miles runAvg speedWind from/ knotsBaromVisibWave heightAir tempDewpointWater temp
2018-Apr-27 04:59N 54°56' E 019°01'510.1
2018-Apr-27 04:30N 55°01' E 019°02'5 9.8
2018-Apr-27 04:00N 55°06' E 019°02'5 9.9
2018-Apr-27 03:30N 55°11' E 019°04'276 9.9
2018-Apr-25 23:32N 59°46' E 019°42'110.6
2018-Apr-25 23:26N 59°46' E 019°40'510.4
2018-Apr-25 23:00N 59°50' E 019°34'510.3
2018-Apr-25 22:30N 59°53' E 019°27'510.6
2018-Apr-25 22:01N 59°57' E 019°19'510.7
2018-Apr-25 21:30N 60°01' E 019°12'510.8
2018-Apr-25 21:01N 60°04' E 019°04'510.9
2018-Apr-25 20:30N 60°08' E 018°56'510.2
2018-Apr-25 20:00N 60°12' E 018°48'4 8.5
2018-Apr-25 19:31N 60°14' E 018°41'4 8.5
2018-Apr-25 19:01N 60°10' E 018°38'4 7.8
2018-Apr-25 18:28N 60°10' E 018°29'0 0.0
2018-Apr-25 17:51N 60°10' E 018°29'0 0.0
2018-Apr-25 17:30N 60°10' E 018°29'0 0.0
2018-Apr-25 17:00N 60°10' E 018°29'0 0.0
2018-Apr-25 16:30N 60°10' E 018°29'0 0.0
2018-Apr-25 15:56N 60°10' E 018°29'0 0.0
2018-Apr-25 15:23N 60°10' E 018°29'0 0.0
2018-Apr-25 14:59N 60°10' E 018°29'0 0.0
2018-Apr-25 14:29N 60°10' E 018°29'0 0.0
2018-Apr-25 13:59N 60°10' E 018°29'0 0.0
2018-Apr-25 13:25N 60°10' E 018°29'0 0.0
2018-Apr-25 12:52N 60°10' E 018°29'0 0.0
2018-Apr-25 12:28N 60°10' E 018°29'0 0.0
2018-Apr-25 11:58N 60°10' E 018°29'0 0.0
2018-Apr-25 11:28N 60°10' E 018°29'0 0.0
2018-Apr-25 10:54N 60°10' E 018°29'0 0.0
2018-Apr-25 10:30N 60°10' E 018°29'0 0.0
2018-Apr-25 10:00N 60°10' E 018°29'0 0.0
2018-Apr-25 09:30N 60°10' E 018°29'0 0.0
2018-Apr-25 08:56N 60°10' E 018°29'0 0.0
2018-Apr-25 08:23N 60°10' E 018°29'0 0.0
2018-Apr-25 07:59N 60°10' E 018°29'0 0.0
2018-Apr-25 07:29N 60°10' E 018°29'0 0.0
2018-Apr-25 06:59N 60°10' E 018°29'0 0.0
2018-Apr-25 06:22N 60°10' E 018°29'0 0.0
2018-Apr-25 05:49N 60°10' E 018°29'0 0.0
2018-Apr-25 05:16N 60°10' E 018°29'0 0.0
2018-Apr-25 04:58N 60°10' E 018°29'0 0.0
2018-Apr-25 04:28N 60°10' E 018°29'0 0.0
2018-Apr-25 03:51N 60°10' E 018°29'0 0.0
2018-Apr-25 03:30N 60°10' E 018°29'0 0.0
2018-Apr-25 03:00N 60°10' E 018°29'0 0.0
2018-Apr-25 02:24N 60°10' E 018°29'0 0.0
2018-Apr-25 01:38N 60°10' E 018°29'0 0.0
2018-Apr-25 01:20N 60°10' E 018°29'0 0.0
2018-Apr-25 00:59N 60°10' E 018°29'0 0.0
2018-Apr-25 00:29N 60°10' E 018°29'0 0.0
2018-Apr-24 23:56N 60°10' E 018°29'0 0.0
2018-Apr-24 23:22N 60°10' E 018°29'0 0.0
2018-Apr-24 22:49N 60°10' E 018°29'0 0.0
2018-Apr-24 22:28N 60°10' E 018°29'0 0.0
2018-Apr-24 21:58N 60°10' E 018°29'0 0.0
2018-Apr-24 21:06N 60°10' E 018°29'0 0.0
2018-Apr-24 20:51N 60°10' E 018°29'0 0.0
2018-Apr-24 20:30N 60°10' E 018°29'0 0.0
2018-Apr-24 20:00N 60°10' E 018°29'0 0.0
2018-Apr-24 19:30N 60°10' E 018°29'1 1.4
2018-Apr-24 19:00N 60°10' E 018°31'510.2
2018-Apr-24 18:30N 60°10' E 018°41'4 8.4
2018-Apr-24 18:00N 60°14' E 018°44'611.2
2018-Apr-24 17:30N 60°12' E 018°54'1 2.8
2018-Apr-24 16:59N 60°12' E 018°57'1 2.6
2018-Apr-24 16:30N 60°13' E 018°59'3 5.2
2018-Apr-24 16:00N 60°16' E 018°60'3 5.8
2018-Apr-24 15:30N 60°19' E 019°00'4 7.1
2018-Apr-24 15:00N 60°22' E 018°60'7 7.6
2018-Apr-24 14:06N 60°29' E 018°59'1 7.8
2018-Apr-24 13:59N 60°30' E 018°60'171 8.8
2018-Apr-23 18:30N 63°11' E 021°03'510.3
2018-Apr-23 18:00N 63°07' E 021°11'8 0.3
2018-Apr-22 18:28N 63°06' E 021°28'5 9.6
2018-Apr-22 18:00N 63°08' E 021°18'5 8.7
2018-Apr-22 17:26N 63°08' E 021°07'510.6
2018-Apr-22 16:59N 63°12' E 021°01'175 9.5
2018-Apr-21 22:26N 60°25' E 019°02'410.7
2018-Apr-21 22:00N 60°21' E 019°01'510.5
2018-Apr-21 21:30N 60°16' E 019°02'510.6
2018-Apr-21 21:00N 60°11' E 019°06'610.9
2018-Apr-21 20:30N 60°07' E 019°13'510.8
2018-Apr-21 20:00N 60°02' E 019°20'510.7
2018-Apr-21 19:30N 59°58' E 019°27'510.7
2018-Apr-21 19:00N 59°54' E 019°33'510.7
2018-Apr-21 18:30N 59°50' E 019°40'710.7
2018-Apr-21 17:53N 59°45' E 019°49'29110.3
2018-Apr-20 13:39N 54°54' E 019°34'210.8
2018-Apr-20 13:29N 54°52' E 019°35'510.8
2018-Apr-20 13:00N 54°47' E 019°36'810.1
2018-Apr-20 12:15N 54°42' E 019°45'510.1
2018-Apr-20 11:48N 54°39' E 019°52'2 7.0
2018-Apr-20 11:30N 54°38' E 019°55'11 4.5
2018-Apr-20 09:08N 54°41' E 020°12'0 0.0
2018-Apr-20 04:03N 54°41' E 020°12'0 0.0
2018-Apr-20 03:54N 54°41' E 020°12'0 0.0
2018-Apr-20 02:33N 54°41' E 020°12'0 0.0
2018-Apr-20 02:27N 54°41' E 020°12'  
2018-Apr-17 14:03N 54°39' E 020°04'110.4
2018-Apr-17 13:58N 54°39' E 020°02'8 7.9
2018-Apr-17 13:00N 54°40' E 019°49'2 2.9
2018-Apr-17 12:25N 54°38' E 019°47'0 0.0
2018-Apr-17 11:58N 54°38' E 019°47'0 0.0
2018-Apr-17 11:31N 54°38' E 019°47'0 0.0
2018-Apr-17 10:24N 54°38' E 019°47'0 0.0
2018-Apr-17 10:00N 54°38' E 019°47'0 0.0
2018-Apr-17 09:24N 54°38' E 019°47'0 0.0
2018-Apr-17 08:59N 54°38' E 019°47'0 0.0
2018-Apr-17 07:50N 54°38' E 019°47'0 0.0
2018-Apr-17 07:26N 54°38' E 019°47'0 0.0
2018-Apr-17 06:43N 54°38' E 019°47'0 0.0
2018-Apr-17 06:22N 54°38' E 019°47'0 0.0
2018-Apr-17 05:58N 54°38' E 019°47'0 0.0
2018-Apr-17 05:28N 54°38' E 019°47'  

Dump ship's entire track history